createdAt,value
2022-12-06T00:00:48.722Z,1011.54
2022-12-06T00:01:48.778Z,1011.48
2022-12-06T00:02:48.762Z,1011.54
2022-12-06T00:03:48.771Z,1011.53
2022-12-06T00:04:48.760Z,1011.51
2022-12-06T00:05:48.768Z,1011.52
2022-12-06T00:06:48.777Z,1011.48
2022-12-06T00:07:48.806Z,1011.56
2022-12-06T00:08:48.909Z,1011.53
2022-12-06T00:09:48.805Z,1011.53
2022-12-06T00:10:48.817Z,1011.51
2022-12-06T00:11:48.827Z,1011.53
2022-12-06T00:12:48.835Z,1011.53
2022-12-06T00:13:48.842Z,1011.52
2022-12-06T00:14:48.852Z,1011.55
2022-12-06T00:15:48.863Z,1011.57
2022-12-06T00:16:48.949Z,1011.54
2022-12-06T00:17:48.880Z,1011.55
2022-12-06T00:18:48.889Z,1011.47
2022-12-06T00:19:48.901Z,1011.54
2022-12-06T00:20:48.909Z,1011.50
2022-12-06T00:21:48.919Z,1011.54
2022-12-06T00:22:48.931Z,1011.53
2022-12-06T00:23:48.956Z,1011.52
2022-12-06T00:24:48.954Z,1011.54
2022-12-06T00:25:48.960Z,1011.51
2022-12-06T00:26:48.967Z,1011.51
2022-12-06T00:27:48.975Z,1011.55
2022-12-06T00:28:48.985Z,1011.53
2022-12-06T00:29:48.999Z,1011.57
2022-12-06T00:30:49.019Z,1011.52
2022-12-06T00:31:49.086Z,1011.59
2022-12-06T00:32:49.023Z,1011.58
2022-12-06T00:33:49.030Z,1011.60
2022-12-06T00:34:49.040Z,1011.58
2022-12-06T00:35:49.052Z,1011.58
2022-12-06T00:36:49.065Z,1011.59
2022-12-06T00:37:49.066Z,1011.55
2022-12-06T00:38:49.082Z,1011.55
2022-12-06T00:39:49.085Z,1011.52
2022-12-06T00:40:49.100Z,1011.54
2022-12-06T00:41:49.110Z,1011.52
2022-12-06T00:42:49.112Z,1011.50
2022-12-06T00:43:49.123Z,1011.50
2022-12-06T00:44:49.132Z,1011.46
2022-12-06T00:45:49.225Z,1011.46
2022-12-06T00:46:49.154Z,1011.42
2022-12-06T00:47:49.165Z,1011.45
2022-12-06T00:48:49.169Z,1011.42
2022-12-06T00:49:49.178Z,1011.41
2022-12-06T00:50:49.187Z,1011.41
2022-12-06T00:51:49.196Z,1011.42
2022-12-06T00:52:49.206Z,1011.40
2022-12-06T00:53:49.220Z,1011.41
2022-12-06T00:54:49.224Z,1011.45
2022-12-06T00:55:49.234Z,1011.45
2022-12-06T00:56:49.244Z,1011.44
2022-12-06T00:57:49.251Z,1011.43
2022-12-06T00:58:49.261Z,1011.42
2022-12-06T00:59:49.270Z,1011.43
2022-12-06T01:00:49.311Z,1011.43
2022-12-06T01:01:49.358Z,1011.42
2022-12-06T01:02:49.334Z,1011.40
2022-12-06T01:03:49.341Z,1011.43
2022-12-06T01:04:49.319Z,1011.42
2022-12-06T01:05:49.322Z,1011.40
2022-12-06T01:06:49.336Z,1011.35
2022-12-06T01:07:49.364Z,1011.40
2022-12-06T01:08:49.353Z,1011.39
2022-12-06T01:09:49.361Z,1011.32
2022-12-06T01:10:49.371Z,1011.37
2022-12-06T01:11:49.382Z,1011.35
2022-12-06T01:12:49.390Z,1011.35
2022-12-06T01:13:49.397Z,1011.32
2022-12-06T01:14:49.409Z,1011.29
2022-12-06T01:15:49.418Z,1011.31
2022-12-06T01:16:49.520Z,1011.31
2022-12-06T01:17:49.433Z,1011.31
2022-12-06T01:18:49.444Z,1011.36
2022-12-06T01:19:49.452Z,1011.34
2022-12-06T01:20:49.464Z,1011.30
2022-12-06T01:21:49.470Z,1011.35
2022-12-06T01:22:49.480Z,1011.33
2022-12-06T01:23:49.488Z,1011.29
2022-12-06T01:24:49.497Z,1011.30
2022-12-06T01:25:49.507Z,1011.27
2022-12-06T01:26:49.516Z,1011.31
2022-12-06T01:27:49.528Z,1011.28
2022-12-06T01:28:49.535Z,1011.30
2022-12-06T01:29:49.544Z,1011.25
2022-12-06T01:30:49.581Z,1011.32
2022-12-06T01:31:49.565Z,1011.30
2022-12-06T01:32:49.572Z,1011.22
2022-12-06T01:33:49.578Z,1011.26
2022-12-06T01:34:49.588Z,1011.28
2022-12-06T01:35:49.599Z,1011.24
2022-12-06T01:36:49.606Z,1011.27
2022-12-06T01:37:49.616Z,1011.29
2022-12-06T01:38:49.625Z,1011.29
2022-12-06T01:39:49.638Z,1011.31
2022-12-06T01:40:49.643Z,1011.29
2022-12-06T01:41:49.651Z,1011.31
2022-12-06T01:42:49.663Z,1011.31
2022-12-06T01:43:49.670Z,1011.32
2022-12-06T01:44:49.677Z,1011.34
2022-12-06T01:45:49.732Z,1011.32
2022-12-06T01:46:49.697Z,1011.33
2022-12-06T01:47:49.709Z,1011.33
2022-12-06T01:48:49.716Z,1011.31
2022-12-06T01:49:49.723Z,1011.33
2022-12-06T01:50:49.732Z,1011.33
2022-12-06T01:51:49.742Z,1011.31
2022-12-06T01:52:49.750Z,1011.26
2022-12-06T01:53:49.760Z,1011.30
2022-12-06T01:54:49.769Z,1011.30
2022-12-06T01:55:49.795Z,1011.31
2022-12-06T01:56:49.791Z,1011.28
2022-12-06T01:57:49.796Z,1011.32
2022-12-06T01:58:49.812Z,1011.29
2022-12-06T01:59:49.817Z,1011.35
2022-12-06T02:00:49.824Z,1011.31
2022-12-06T02:01:49.975Z,1011.31
2022-12-06T02:02:49.884Z,1011.31
2022-12-06T02:03:49.850Z,1011.29
2022-12-06T02:04:49.861Z,1011.29
2022-12-06T02:05:49.868Z,1011.32
2022-12-06T02:06:49.878Z,1011.29
2022-12-06T02:07:49.929Z,1011.27
2022-12-06T02:08:49.898Z,1011.28
2022-12-06T02:09:49.905Z,1011.26
2022-12-06T02:10:49.917Z,1011.28
2022-12-06T02:11:49.925Z,1011.25
2022-12-06T02:12:49.932Z,1011.27
2022-12-06T02:13:49.941Z,1011.24
2022-12-06T02:14:49.948Z,1011.23
2022-12-06T02:15:49.957Z,1011.20
2022-12-06T02:16:50.040Z,1011.17
2022-12-06T02:17:49.977Z,1011.13
2022-12-06T02:18:49.985Z,1011.11
2022-12-06T02:19:49.996Z,1011.08
2022-12-06T02:20:50.006Z,1011.02
2022-12-06T02:21:50.013Z,1011.03
2022-12-06T02:22:50.025Z,1011.04
2022-12-06T02:23:50.031Z,1011.02
2022-12-06T02:24:50.045Z,1011.00
2022-12-06T02:25:50.049Z,1010.99
2022-12-06T02:26:50.060Z,1011.04
2022-12-06T02:27:50.072Z,1011.00
2022-12-06T02:28:50.076Z,1011.01
2022-12-06T02:29:50.082Z,1011.02
2022-12-06T02:30:50.124Z,1011.03
2022-12-06T02:31:50.102Z,1011.03
2022-12-06T02:32:54.708Z,1011.01
2022-12-06T02:33:50.120Z,1011.03
2022-12-06T02:34:50.130Z,1011.00
2022-12-06T02:35:50.138Z,1011.00
2022-12-06T02:36:50.148Z,1011.00
2022-12-06T02:37:50.163Z,1010.96
2022-12-06T02:38:50.167Z,1010.98
2022-12-06T02:39:50.174Z,1010.93
2022-12-06T02:40:50.184Z,1010.97
2022-12-06T02:41:50.194Z,1010.97
2022-12-06T02:42:50.203Z,1011.01
2022-12-06T02:43:50.209Z,1010.96
2022-12-06T02:44:50.219Z,1010.97
2022-12-06T02:45:50.279Z,1010.93
2022-12-06T02:46:50.238Z,1010.96
2022-12-06T02:47:50.250Z,1010.92
2022-12-06T02:48:50.256Z,1010.89
2022-12-06T02:49:50.267Z,1010.87
2022-12-06T02:50:50.273Z,1010.89
2022-12-06T02:51:50.284Z,1010.86
2022-12-06T02:52:50.294Z,1010.87
2022-12-06T02:53:50.300Z,1010.85
2022-12-06T02:54:50.310Z,1010.89
2022-12-06T02:55:50.317Z,1010.88
2022-12-06T02:56:50.326Z,1010.88
2022-12-06T02:57:50.338Z,1010.87
2022-12-06T02:58:50.344Z,1010.88
2022-12-06T02:59:50.352Z,1010.87
2022-12-06T03:00:50.362Z,1010.88
2022-12-06T03:01:50.445Z,1010.85
2022-12-06T03:02:50.408Z,1010.89
2022-12-06T03:03:50.388Z,1010.89
2022-12-06T03:04:50.397Z,1010.88
2022-12-06T03:05:50.409Z,1010.90
2022-12-06T03:06:50.413Z,1010.83
2022-12-06T03:07:50.460Z,1010.83
2022-12-06T03:08:50.432Z,1010.86
2022-12-06T03:09:50.445Z,1010.82
2022-12-06T03:10:50.452Z,1010.83
2022-12-06T03:11:50.461Z,1010.78
2022-12-06T03:12:50.470Z,1010.80
2022-12-06T03:13:50.479Z,1010.75
2022-12-06T03:14:50.486Z,1010.75
2022-12-06T03:15:50.514Z,1010.72
2022-12-06T03:16:50.505Z,1010.74
2022-12-06T03:17:50.512Z,1010.73
2022-12-06T03:18:50.524Z,1010.70
2022-12-06T03:19:50.528Z,1010.71
2022-12-06T03:20:50.539Z,1010.65
2022-12-06T03:21:50.547Z,1010.68
2022-12-06T03:22:50.562Z,1010.61
2022-12-06T03:23:50.569Z,1010.61
2022-12-06T03:24:50.582Z,1010.59
2022-12-06T03:25:50.582Z,1010.60
2022-12-06T03:26:50.596Z,1010.52
2022-12-06T03:27:50.600Z,1010.58
2022-12-06T03:28:50.611Z,1010.56
2022-12-06T03:29:50.619Z,1010.58
2022-12-06T03:30:50.657Z,1010.56
2022-12-06T03:31:50.636Z,1010.57
2022-12-06T03:32:50.645Z,1010.51
2022-12-06T03:33:50.654Z,1010.53
2022-12-06T03:34:50.683Z,1010.53
2022-12-06T03:35:50.673Z,1010.53
2022-12-06T03:36:50.683Z,1010.54
2022-12-06T03:37:50.689Z,1010.54
2022-12-06T03:38:50.698Z,1010.54
2022-12-06T03:39:50.709Z,1010.54
2022-12-06T03:40:50.718Z,1010.53
2022-12-06T03:41:50.723Z,1010.52
2022-12-06T03:42:50.733Z,1010.52
2022-12-06T03:43:50.743Z,1010.51
2022-12-06T03:44:50.750Z,1010.52
2022-12-06T03:45:50.833Z,1010.51
2022-12-06T03:46:50.858Z,1010.49
2022-12-06T03:47:50.776Z,1010.47
2022-12-06T03:48:50.787Z,1010.46
2022-12-06T03:49:50.797Z,1010.43
2022-12-06T03:50:54.201Z,1010.45
2022-12-06T03:51:50.813Z,1010.45
2022-12-06T03:52:50.838Z,1010.45
2022-12-06T03:53:50.841Z,1010.43
2022-12-06T03:54:50.841Z,1010.46
2022-12-06T03:55:50.855Z,1010.42
2022-12-06T03:56:50.862Z,1010.43
2022-12-06T03:57:50.887Z,1010.44
2022-12-06T03:58:50.909Z,1010.47
2022-12-06T03:59:50.900Z,1010.41
2022-12-06T04:00:50.895Z,1010.42
2022-12-06T04:01:50.954Z,1010.41
2022-12-06T04:02:50.912Z,1010.38
2022-12-06T04:03:50.974Z,1010.36
2022-12-06T04:04:50.929Z,1010.39
2022-12-06T04:05:50.935Z,1010.39
2022-12-06T04:06:50.944Z,1010.37
2022-12-06T04:07:51.013Z,1010.39
2022-12-06T04:08:50.966Z,1010.39
2022-12-06T04:09:50.969Z,1010.36
2022-12-06T04:10:50.984Z,1010.38
2022-12-06T04:11:50.988Z,1010.34
2022-12-06T04:12:50.997Z,1010.36
2022-12-06T04:13:51.007Z,1010.33
2022-12-06T04:14:51.019Z,1010.34
2022-12-06T04:15:51.062Z,1010.29
2022-12-06T04:16:51.031Z,1010.27
2022-12-06T04:17:51.041Z,1010.26
2022-12-06T04:18:51.047Z,1010.26
2022-12-06T04:19:52.286Z,1010.28
2022-12-06T04:20:51.067Z,1010.28
2022-12-06T04:21:51.073Z,1010.29
2022-12-06T04:22:51.086Z,1010.25
2022-12-06T04:23:51.092Z,1010.26
2022-12-06T04:24:51.103Z,1010.22
2022-12-06T04:25:51.111Z,1010.22
2022-12-06T04:26:51.119Z,1010.21
2022-12-06T04:27:51.126Z,1010.23
2022-12-06T04:28:51.135Z,1010.20
2022-12-06T04:29:51.145Z,1010.18
2022-12-06T04:30:51.155Z,1010.18
2022-12-06T04:31:51.211Z,1010.11
2022-12-06T04:32:51.178Z,1010.10
2022-12-06T04:33:51.183Z,1010.08
2022-12-06T04:34:51.187Z,1010.08
2022-12-06T04:35:51.198Z,1010.07
2022-12-06T04:36:51.209Z,1010.03
2022-12-06T04:37:51.214Z,1010.03
2022-12-06T04:38:51.223Z,1010.04
2022-12-06T04:39:51.236Z,1010.01
2022-12-06T04:40:51.240Z,1010.05
2022-12-06T04:41:51.250Z,1009.98
2022-12-06T04:42:51.259Z,1009.99
2022-12-06T04:43:51.265Z,1010.00
2022-12-06T04:44:51.275Z,1009.96
2022-12-06T04:45:51.283Z,1009.96
2022-12-06T04:46:51.349Z,1009.95
2022-12-06T04:47:51.308Z,1009.97
2022-12-06T04:48:51.310Z,1009.92
2022-12-06T04:49:51.318Z,1010.01
2022-12-06T04:50:51.327Z,1009.95
2022-12-06T04:51:51.336Z,1009.92
2022-12-06T04:52:51.348Z,1009.92
2022-12-06T04:53:51.353Z,1009.93
2022-12-06T04:54:51.361Z,1009.91
2022-12-06T04:55:51.371Z,1009.90
2022-12-06T04:56:51.380Z,1009.93
2022-12-06T04:57:51.388Z,1009.88
2022-12-06T04:58:51.395Z,1009.87
2022-12-06T04:59:51.407Z,1009.85
2022-12-06T05:00:51.444Z,1009.87
2022-12-06T05:01:51.424Z,1009.84
2022-12-06T05:02:51.440Z,1009.86
2022-12-06T05:03:51.485Z,1009.81
2022-12-06T05:04:51.450Z,1009.81
2022-12-06T05:05:51.458Z,1009.81
2022-12-06T05:06:51.467Z,1009.85
2022-12-06T05:07:51.546Z,1009.88
2022-12-06T05:08:51.486Z,1009.87
2022-12-06T05:09:51.493Z,1009.86
2022-12-06T05:10:51.500Z,1009.87
2022-12-06T05:11:51.509Z,1009.81
2022-12-06T05:12:51.520Z,1009.84
2022-12-06T05:13:51.528Z,1009.80
2022-12-06T05:14:51.537Z,1009.82
2022-12-06T05:15:51.625Z,1009.84
2022-12-06T05:16:51.597Z,1009.84
2022-12-06T05:17:51.561Z,1009.86
2022-12-06T05:18:51.568Z,1009.89
2022-12-06T05:19:51.580Z,1009.83
2022-12-06T05:20:51.587Z,1009.89
2022-12-06T05:21:51.597Z,1009.81
2022-12-06T05:22:51.610Z,1009.86
2022-12-06T05:23:51.613Z,1009.84
2022-12-06T05:24:51.621Z,1009.88
2022-12-06T05:25:51.631Z,1009.85
2022-12-06T05:26:51.639Z,1009.89
2022-12-06T05:27:51.647Z,1009.86
2022-12-06T05:28:51.656Z,1009.87
2022-12-06T05:29:51.665Z,1009.82
2022-12-06T05:30:51.676Z,1009.81
2022-12-06T05:31:51.713Z,1009.81
2022-12-06T05:32:56.793Z,1009.78
2022-12-06T05:33:51.698Z,1009.79
2022-12-06T05:34:51.709Z,1009.77
2022-12-06T05:35:51.716Z,1009.82
2022-12-06T05:36:51.726Z,1009.78
2022-12-06T05:37:51.733Z,1009.80
2022-12-06T05:38:51.953Z,1009.79
2022-12-06T05:39:51.752Z,1009.77
2022-12-06T05:40:51.761Z,1009.82
2022-12-06T05:41:51.769Z,1009.81
2022-12-06T05:42:51.776Z,1009.81
2022-12-06T05:43:51.788Z,1009.76
2022-12-06T05:44:51.794Z,1009.78
2022-12-06T05:45:51.836Z,1009.75
2022-12-06T05:46:51.814Z,1009.80
2022-12-06T05:47:51.820Z,1009.74
2022-12-06T05:48:51.832Z,1009.77
2022-12-06T05:49:51.836Z,1009.76
2022-12-06T05:50:51.844Z,1009.78
2022-12-06T05:51:51.854Z,1009.80
2022-12-06T05:52:51.864Z,1009.75
2022-12-06T05:53:51.871Z,1009.75
2022-12-06T05:54:51.883Z,1009.69
2022-12-06T05:55:51.903Z,1009.74
2022-12-06T05:56:51.901Z,1009.73
2022-12-06T05:57:51.907Z,1009.76
2022-12-06T05:58:51.915Z,1009.75
2022-12-06T05:59:51.932Z,1009.77
2022-12-06T06:00:51.934Z,1009.76
2022-12-06T06:01:51.990Z,1009.73
2022-12-06T06:02:52.068Z,1009.79
2022-12-06T06:03:51.958Z,1009.75
2022-12-06T06:04:51.966Z,1009.78
2022-12-06T06:05:51.974Z,1009.80
2022-12-06T06:06:51.982Z,1009.79
2022-12-06T06:07:52.051Z,1009.78
2022-12-06T06:08:52.001Z,1009.78
2022-12-06T06:09:52.009Z,1009.78
2022-12-06T06:10:52.020Z,1009.83
2022-12-06T06:11:52.027Z,1009.85
2022-12-06T06:12:52.037Z,1009.85
2022-12-06T06:13:52.045Z,1009.78
2022-12-06T06:14:52.053Z,1009.84
2022-12-06T06:15:52.061Z,1009.77
2022-12-06T06:16:52.209Z,1009.77
2022-12-06T06:17:52.079Z,1009.75
2022-12-06T06:18:52.087Z,1009.77
2022-12-06T06:19:52.099Z,1009.76
2022-12-06T06:20:52.104Z,1009.75
2022-12-06T06:21:52.114Z,1009.74
2022-12-06T06:22:52.126Z,1009.76
2022-12-06T06:23:52.138Z,1009.73
2022-12-06T06:24:52.138Z,1009.74
2022-12-06T06:25:52.150Z,1009.79
2022-12-06T06:26:52.160Z,1009.75
2022-12-06T06:27:52.164Z,1009.76
2022-12-06T06:28:52.172Z,1009.75
2022-12-06T06:29:52.181Z,1009.80
2022-12-06T06:30:52.191Z,1009.79
2022-12-06T06:31:52.230Z,1009.77
2022-12-06T06:32:52.208Z,1009.78
2022-12-06T06:33:52.214Z,1009.77
2022-12-06T06:34:52.223Z,1009.77
2022-12-06T06:35:52.235Z,1009.83
2022-12-06T06:36:52.243Z,1009.82
2022-12-06T06:37:52.249Z,1009.89
2022-12-06T06:38:52.264Z,1009.86
2022-12-06T06:39:52.269Z,1009.89
2022-12-06T06:40:52.278Z,1009.86
2022-12-06T06:41:52.283Z,1009.89
2022-12-06T06:42:52.293Z,1009.89
2022-12-06T06:43:52.301Z,1009.93
2022-12-06T06:44:52.312Z,1009.92
2022-12-06T06:45:52.382Z,1009.87
2022-12-06T06:46:52.327Z,1009.92
2022-12-06T06:47:52.337Z,1009.91
2022-12-06T06:48:52.347Z,1009.91
2022-12-06T06:49:52.353Z,1009.91
2022-12-06T06:50:56.905Z,1009.88
2022-12-06T06:51:52.373Z,1009.88
2022-12-06T06:52:52.379Z,1009.89
2022-12-06T06:53:52.387Z,1009.86
2022-12-06T06:54:52.398Z,1009.88
2022-12-06T06:55:52.405Z,1009.88
2022-12-06T06:56:52.415Z,1009.89
2022-12-06T06:57:52.421Z,1009.82
2022-12-06T06:58:52.431Z,1009.85
2022-12-06T06:59:52.440Z,1009.84
2022-12-06T07:00:52.521Z,1009.84
2022-12-06T07:01:52.492Z,1009.82
2022-12-06T07:02:52.492Z,1009.86
2022-12-06T07:03:52.476Z,1009.83
2022-12-06T07:04:52.486Z,1009.82
2022-12-06T07:05:52.491Z,1009.85
2022-12-06T07:06:52.502Z,1009.87
2022-12-06T07:07:52.539Z,1009.84
2022-12-06T07:08:52.518Z,1009.84
2022-12-06T07:09:52.524Z,1009.86
2022-12-06T07:10:52.535Z,1009.83
2022-12-06T07:11:52.545Z,1009.90
2022-12-06T07:12:52.554Z,1009.83
2022-12-06T07:13:52.933Z,1009.89
2022-12-06T07:14:52.569Z,1009.83
2022-12-06T07:15:52.579Z,1009.84
2022-12-06T07:16:52.616Z,1009.87
2022-12-06T07:17:52.594Z,1009.85
2022-12-06T07:18:52.605Z,1009.88
2022-12-06T07:19:52.613Z,1009.88
2022-12-06T07:20:52.621Z,1009.89
2022-12-06T07:21:52.634Z,1009.92
2022-12-06T07:22:52.638Z,1009.87
2022-12-06T07:23:52.665Z,1009.92
2022-12-06T07:24:52.764Z,1009.90
2022-12-06T07:25:52.680Z,1009.90
2022-12-06T07:26:52.684Z,1009.94
2022-12-06T07:27:52.687Z,1009.92
2022-12-06T07:28:52.692Z,1009.95
2022-12-06T07:29:52.702Z,1009.97
2022-12-06T07:30:52.768Z,1009.86
2022-12-06T07:31:52.721Z,1009.94
2022-12-06T07:32:52.738Z,1009.92
2022-12-06T07:33:52.735Z,1009.92
2022-12-06T07:34:52.744Z,1009.93
2022-12-06T07:36:13.949Z,1009.93
2022-12-06T07:36:52.763Z,1009.90
2022-12-06T07:37:52.769Z,1009.92
2022-12-06T07:38:52.788Z,1010.00
2022-12-06T07:39:52.788Z,1010.00
2022-12-06T07:41:07.964Z,1010.01
2022-12-06T07:41:52.807Z,1010.00
2022-12-06T07:42:52.811Z,1010.02
2022-12-06T07:43:52.824Z,1010.00
2022-12-06T07:44:55.541Z,1009.96
2022-12-06T07:45:52.890Z,1009.98
2022-12-06T07:46:52.847Z,1009.97
2022-12-06T07:47:52.857Z,1009.97
2022-12-06T07:48:52.866Z,1009.95
2022-12-06T07:49:52.874Z,1009.97
2022-12-06T07:50:52.884Z,1009.98
2022-12-06T07:51:52.891Z,1009.94
2022-12-06T07:52:52.901Z,1009.92
2022-12-06T07:53:52.909Z,1009.94
2022-12-06T07:54:52.920Z,1009.93
2022-12-06T07:55:52.933Z,1009.93
2022-12-06T07:56:52.938Z,1009.94
2022-12-06T07:57:52.950Z,1009.95
2022-12-06T07:58:52.955Z,1009.97
2022-12-06T07:59:52.963Z,1009.95
2022-12-06T08:00:52.972Z,1010.00
2022-12-06T08:01:53.059Z,1010.02
2022-12-06T08:02:52.993Z,1009.96
2022-12-06T08:03:52.999Z,1009.99
2022-12-06T08:04:53.117Z,1009.96
2022-12-06T08:05:53.019Z,1010.02
2022-12-06T08:06:53.029Z,1009.98
2022-12-06T08:07:53.073Z,1009.97
2022-12-06T08:08:53.044Z,1009.98
2022-12-06T08:09:53.054Z,1009.98
2022-12-06T08:10:53.061Z,1010.00
2022-12-06T08:11:53.071Z,1009.96
2022-12-06T08:12:53.081Z,1009.98
2022-12-06T08:13:53.092Z,1009.96
2022-12-06T08:14:56.728Z,1009.97
2022-12-06T08:15:53.169Z,1009.96
2022-12-06T08:16:53.119Z,1009.97
2022-12-06T08:17:53.124Z,1009.95
2022-12-06T08:18:53.132Z,1009.98
2022-12-06T08:19:53.143Z,1009.96
2022-12-06T08:20:53.153Z,1009.98
2022-12-06T08:21:53.160Z,1009.98
2022-12-06T08:22:53.170Z,1009.97
2022-12-06T08:23:53.179Z,1009.99
2022-12-06T08:24:53.190Z,1009.98
2022-12-06T08:25:53.197Z,1010.03
2022-12-06T08:26:53.212Z,1010.00
2022-12-06T08:27:53.214Z,1010.04
2022-12-06T08:28:53.224Z,1010.00
2022-12-06T08:29:53.233Z,1010.02
2022-12-06T08:30:55.082Z,1010.01
2022-12-06T08:31:53.254Z,1009.99
2022-12-06T08:32:53.261Z,1010.01
2022-12-06T08:33:53.269Z,1010.03
2022-12-06T08:34:53.278Z,1009.95
2022-12-06T08:35:53.288Z,1010.03
2022-12-06T08:36:53.297Z,1010.01
2022-12-06T08:37:53.306Z,1009.99
2022-12-06T08:38:53.319Z,1009.98
2022-12-06T08:39:53.323Z,1009.98
2022-12-06T08:40:53.335Z,1010.03
2022-12-06T08:41:53.345Z,1010.01
2022-12-06T08:42:53.351Z,1010.02
2022-12-06T08:43:53.359Z,1010.00
2022-12-06T08:44:53.369Z,1009.99
2022-12-06T08:45:53.398Z,1010.03
2022-12-06T08:46:53.390Z,1010.01
2022-12-06T08:47:53.395Z,1010.03
2022-12-06T08:48:53.406Z,1010.03
2022-12-06T08:49:53.412Z,1009.98
2022-12-06T08:50:53.422Z,1010.03
2022-12-06T08:51:53.441Z,1010.01
2022-12-06T08:52:53.442Z,1009.99
2022-12-06T08:53:53.449Z,1010.02
2022-12-06T08:54:53.458Z,1010.04
2022-12-06T08:55:57.322Z,1009.96
2022-12-06T08:56:53.484Z,1009.98
2022-12-06T08:57:53.485Z,1009.94
2022-12-06T08:58:53.495Z,1009.95
2022-12-06T08:59:53.503Z,1009.94
2022-12-06T09:00:53.518Z,1009.91
2022-12-06T09:01:53.561Z,1009.92
2022-12-06T09:02:53.532Z,1009.91
2022-12-06T09:03:53.552Z,1009.97
2022-12-06T09:04:53.663Z,1009.96
2022-12-06T09:05:53.559Z,1009.97
2022-12-06T09:06:53.570Z,1009.97
2022-12-06T09:07:53.595Z,1009.94
2022-12-06T09:08:53.589Z,1009.98
2022-12-06T09:09:53.601Z,1009.95
2022-12-06T09:10:53.606Z,1009.97
2022-12-06T09:11:53.616Z,1009.97
2022-12-06T09:12:53.624Z,1009.94
2022-12-06T09:13:53.639Z,1009.96
2022-12-06T09:14:53.677Z,1009.96
2022-12-06T09:15:53.740Z,1009.96
2022-12-06T09:16:53.663Z,1009.93
2022-12-06T09:17:53.673Z,1009.89
2022-12-06T09:18:53.693Z,1009.93
2022-12-06T09:19:53.691Z,1009.88
2022-12-06T09:20:53.700Z,1009.96
2022-12-06T09:21:53.709Z,1009.91
2022-12-06T09:22:53.720Z,1009.93
2022-12-06T09:23:53.730Z,1009.94
2022-12-06T09:24:53.739Z,1009.92
2022-12-06T09:25:53.750Z,1009.92
2022-12-06T09:26:53.758Z,1009.95
2022-12-06T09:27:53.771Z,1009.92
2022-12-06T09:28:53.778Z,1009.95
2022-12-06T09:29:53.785Z,1009.93
2022-12-06T09:30:53.838Z,1009.90
2022-12-06T09:31:53.810Z,1009.88
2022-12-06T09:32:53.815Z,1009.89
2022-12-06T09:33:53.824Z,1009.87
2022-12-06T09:34:53.834Z,1009.82
2022-12-06T09:35:53.843Z,1009.89
2022-12-06T09:36:53.855Z,1009.85
2022-12-06T09:37:53.863Z,1009.80
2022-12-06T09:38:53.880Z,1009.84
2022-12-06T09:39:53.885Z,1009.85
2022-12-06T09:40:53.896Z,1009.81
2022-12-06T09:41:53.900Z,1009.79
2022-12-06T09:42:53.912Z,1009.80
2022-12-06T09:43:53.921Z,1009.78
2022-12-06T09:44:53.930Z,1009.85
2022-12-06T09:45:53.939Z,1009.81
2022-12-06T09:46:54.032Z,1009.78
2022-12-06T09:47:53.963Z,1009.79
2022-12-06T09:48:53.969Z,1009.77
2022-12-06T09:49:53.979Z,1009.82
2022-12-06T09:50:54.002Z,1009.77
2022-12-06T09:51:54.201Z,1009.74
2022-12-06T09:52:54.006Z,1009.75
2022-12-06T09:53:54.016Z,1009.77
2022-12-06T09:55:00.054Z,1009.76
2022-12-06T09:55:54.044Z,1009.74
2022-12-06T09:56:54.051Z,1009.76
2022-12-06T09:57:54.055Z,1009.74
2022-12-06T09:58:54.065Z,1009.73
2022-12-06T09:59:54.075Z,1009.74
2022-12-06T10:00:54.084Z,1009.70
2022-12-06T10:01:54.148Z,1009.68
2022-12-06T10:02:54.188Z,1009.70
2022-12-06T10:03:54.113Z,1009.65
2022-12-06T10:04:54.123Z,1009.68
2022-12-06T10:05:54.135Z,1009.69
2022-12-06T10:06:54.140Z,1009.68
2022-12-06T10:07:54.292Z,1009.70
2022-12-06T10:08:54.280Z,1009.66
2022-12-06T10:09:54.168Z,1009.63
2022-12-06T10:10:54.179Z,1009.67
2022-12-06T10:11:54.194Z,1009.56
2022-12-06T10:12:54.199Z,1009.60
2022-12-06T10:13:54.209Z,1009.62
2022-12-06T10:14:54.217Z,1009.61
2022-12-06T10:15:54.274Z,1009.58
2022-12-06T10:16:54.236Z,1009.54
2022-12-06T10:17:54.248Z,1009.54
2022-12-06T10:18:54.257Z,1009.57
2022-12-06T10:19:54.270Z,1009.55
2022-12-06T10:20:54.278Z,1009.50
2022-12-06T10:21:54.283Z,1009.54
2022-12-06T10:22:54.295Z,1009.52
2022-12-06T10:23:56.143Z,1009.51
2022-12-06T10:24:54.312Z,1009.51
2022-12-06T10:25:54.320Z,1009.52
2022-12-06T10:26:54.330Z,1009.52
2022-12-06T10:27:54.340Z,1009.49
2022-12-06T10:28:54.350Z,1009.51
2022-12-06T10:29:54.358Z,1009.47
2022-12-06T10:30:54.426Z,1009.49
2022-12-06T10:31:54.448Z,1009.47
2022-12-06T10:32:54.390Z,1009.47
2022-12-06T10:33:54.398Z,1009.40
2022-12-06T10:34:54.409Z,1009.44
2022-12-06T10:35:54.418Z,1009.42
2022-12-06T10:36:54.433Z,1009.41
2022-12-06T10:37:54.438Z,1009.40
2022-12-06T10:38:54.445Z,1009.40
2022-12-06T10:39:54.456Z,1009.41
2022-12-06T10:40:54.481Z,1009.40
2022-12-06T10:41:54.472Z,1009.39
2022-12-06T10:42:54.487Z,1009.41
2022-12-06T10:43:54.498Z,1009.41
2022-12-06T10:44:54.503Z,1009.43
2022-12-06T10:45:54.511Z,1009.41
2022-12-06T10:46:54.562Z,1009.38
2022-12-06T10:47:54.542Z,1009.39
2022-12-06T10:48:54.546Z,1009.32
2022-12-06T10:49:54.566Z,1009.37
2022-12-06T10:50:54.560Z,1009.35
2022-12-06T10:51:54.569Z,1009.35
2022-12-06T10:52:58.689Z,1009.36
2022-12-06T10:53:54.598Z,1009.31
2022-12-06T10:54:54.619Z,1009.31
2022-12-06T10:55:54.614Z,1009.34
2022-12-06T10:56:54.623Z,1009.31
2022-12-06T10:57:54.627Z,1009.37
2022-12-06T10:58:54.638Z,1009.36
2022-12-06T10:59:54.644Z,1009.31
2022-12-06T11:00:54.750Z,1009.32
2022-12-06T11:01:54.761Z,1009.32
2022-12-06T11:02:54.675Z,1009.30
2022-12-06T11:03:54.689Z,1009.32
2022-12-06T11:04:54.695Z,1009.31
2022-12-06T11:05:54.706Z,1009.28
2022-12-06T11:06:55.061Z,1009.29
2022-12-06T11:07:54.752Z,1009.35
2022-12-06T11:08:54.734Z,1009.33
2022-12-06T11:09:54.741Z,1009.29
2022-12-06T11:10:54.748Z,1009.24
2022-12-06T11:11:54.761Z,1009.22
2022-12-06T11:12:54.768Z,1009.25
2022-12-06T11:13:54.778Z,1009.20
2022-12-06T11:14:54.789Z,1009.23
2022-12-06T11:15:54.829Z,1009.17
2022-12-06T11:16:54.811Z,1009.14
2022-12-06T11:17:59.368Z,1009.15
2022-12-06T11:18:54.829Z,1009.14
2022-12-06T11:19:54.836Z,1009.17
2022-12-06T11:20:54.847Z,1009.10
2022-12-06T11:21:54.863Z,1009.10
2022-12-06T11:22:54.868Z,1009.09
2022-12-06T11:23:54.874Z,1009.09
2022-12-06T11:24:54.886Z,1009.07
2022-12-06T11:25:54.893Z,1009.09
2022-12-06T11:26:54.903Z,1009.13
2022-12-06T11:27:54.912Z,1009.10
2022-12-06T11:28:54.924Z,1009.10
2022-12-06T11:29:54.932Z,1009.09
2022-12-06T11:30:54.943Z,1009.07
2022-12-06T11:31:55.050Z,1009.05
2022-12-06T11:32:54.963Z,1009.10
2022-12-06T11:33:54.972Z,1009.09
2022-12-06T11:34:54.981Z,1009.09
2022-12-06T11:35:54.992Z,1009.08
2022-12-06T11:36:59.814Z,1009.15
2022-12-06T11:37:55.008Z,1009.13
2022-12-06T11:38:55.018Z,1009.10
2022-12-06T11:39:55.030Z,1009.06
2022-12-06T11:40:55.038Z,1009.03
2022-12-06T11:41:55.049Z,1009.05
2022-12-06T11:42:55.057Z,1009.03
2022-12-06T11:43:55.063Z,1009.00
2022-12-06T11:44:55.073Z,1008.96
2022-12-06T11:45:55.084Z,1009.00
2022-12-06T11:46:55.188Z,1008.96
2022-12-06T11:47:55.103Z,1008.93
2022-12-06T11:48:55.115Z,1008.94
2022-12-06T11:49:55.123Z,1008.92
2022-12-06T11:50:55.134Z,1008.90
2022-12-06T11:51:55.143Z,1008.93
2022-12-06T11:52:55.153Z,1008.93
2022-12-06T11:53:55.160Z,1008.93
2022-12-06T11:54:55.172Z,1008.92
2022-12-06T11:55:55.185Z,1008.89
2022-12-06T11:56:55.192Z,1008.85
2022-12-06T11:57:55.198Z,1008.86
2022-12-06T11:58:55.214Z,1008.87
2022-12-06T11:59:55.224Z,1008.86
2022-12-06T12:00:55.228Z,1008.84
2022-12-06T12:01:55.310Z,1008.82
2022-12-06T12:02:55.314Z,1008.84
2022-12-06T12:03:55.262Z,1008.81
2022-12-06T12:04:55.268Z,1008.82
2022-12-06T12:05:55.278Z,1008.83